Kiko Solosailor — FW5659 — position and weather

sailwx.info

Track history (hours):
 
Tides and Currents Weather Stations Pressure Air Temp Water Temp Dewpoint Dewpoint Depression Visibility Wind Speed Wind Dir Waves Ship Positions

Kiko Solosailor

Last reported at 2017-Nov-15 14:40 UTC. Time now 2017-Nov-20 02:23 UTC.
Position N 48°23' W 004°29'.

Length 10 m.

Type: Sailing vessel. MMSI: 227519920.

Date/timePositionNaut miles runAvg speedWind from/ knotsBaromVisibWave heightAir tempDewpointWater temp
2017-Nov-15 14:40N 48°23' W 004°29'0 0.0
2017-Nov-15 14:30N 48°23' W 004°29'1 2.9
2017-Nov-15 14:00N 48°21' W 004°30'2 3.1
2017-Nov-15 13:30N 48°21' W 004°33'2 4.7
2017-Nov-15 13:01N 48°19' W 004°35'2 4.6
2017-Nov-15 12:31N 48°18' W 004°37'2 3.1
2017-Nov-15 12:00N 48°16' W 004°38'2 4.0
2017-Nov-15 11:29N 48°14' W 004°38'3 5.9
2017-Nov-15 10:59N 48°11' W 004°38'3 5.1
2017-Nov-15 10:30N 48°09' W 004°38'3 4.4
2017-Nov-15 09:53N 48°08' W 004°34'2 4.6
2017-Nov-15 09:30N 48°08' W 004°31'3 4.6
2017-Nov-15 08:48N 48°07' W 004°26'3 4.2
2017-Nov-15 07:59N 48°07' W 004°21'1 0.1
2017-Nov-14 17:48N 48°06' W 004°20'0 0.0
2017-Nov-14 16:03N 48°06' W 004°20'  
2017-Nov-08 15:24N 48°23' W 004°29'0 0.0
2017-Nov-08 15:00N 48°23' W 004°29'2 4.4
2017-Nov-08 14:30N 48°21' W 004°31'2 4.0
2017-Nov-08 14:00N 48°19' W 004°31'1 2.2
2017-Nov-08 13:30N 48°20' W 004°31'3 5.2
2017-Nov-08 13:00N 48°23' W 004°29'0 0.3
2017-Nov-08 12:26N 48°23' W 004°29'0 0.0
2017-Nov-08 11:53N 48°23' W 004°29'0 0.0
2017-Nov-08 11:26N 48°23' W 004°29'0 0.0
2017-Nov-08 10:59N 48°23' W 004°29'  
Track history (hours):
 
Tides and Currents Weather Stations Pressure Air Temp Water Temp Dewpoint Dewpoint Depression Visibility Wind Speed Wind Dir Waves Ship Positions

Kiko Solosailor

Last reported at 2017-Nov-15 14:40 UTC. Time now 2017-Nov-20 02:23 UTC.
Position N 48°23' W 004°29'.

Length 10 m.

Type: Sailing vessel. MMSI: 227519920.

Date/timePositionNaut miles runAvg speedWind from/ knotsBaromVisibWave heightAir tempDewpointWater temp
2017-Nov-15 14:40N 48°23' W 004°29'0 0.0
2017-Nov-15 14:30N 48°23' W 004°29'1 2.9
2017-Nov-15 14:00N 48°21' W 004°30'2 3.1
2017-Nov-15 13:30N 48°21' W 004°33'2 4.7
2017-Nov-15 13:01N 48°19' W 004°35'2 4.6
2017-Nov-15 12:31N 48°18' W 004°37'2 3.1
2017-Nov-15 12:00N 48°16' W 004°38'2 4.0
2017-Nov-15 11:29N 48°14' W 004°38'3 5.9
2017-Nov-15 10:59N 48°11' W 004°38'3 5.1
2017-Nov-15 10:30N 48°09' W 004°38'3 4.4
2017-Nov-15 09:53N 48°08' W 004°34'2 4.6
2017-Nov-15 09:30N 48°08' W 004°31'3 4.6
2017-Nov-15 08:48N 48°07' W 004°26'3 4.2
2017-Nov-15 07:59N 48°07' W 004°21'1 0.1
2017-Nov-14 17:48N 48°06' W 004°20'0 0.0
2017-Nov-14 16:03N 48°06' W 004°20'  
2017-Nov-08 15:24N 48°23' W 004°29'0 0.0
2017-Nov-08 15:00N 48°23' W 004°29'2 4.4
2017-Nov-08 14:30N 48°21' W 004°31'2 4.0
2017-Nov-08 14:00N 48°19' W 004°31'1 2.2
2017-Nov-08 13:30N 48°20' W 004°31'3 5.2
2017-Nov-08 13:00N 48°23' W 004°29'0 0.3
2017-Nov-08 12:26N 48°23' W 004°29'0 0.0
2017-Nov-08 11:53N 48°23' W 004°29'0 0.0
2017-Nov-08 11:26N 48°23' W 004°29'0 0.0
2017-Nov-08 10:59N 48°23' W 004°29'  

Dump ship's entire track history